Time;durP1;ratioP1;P1;durP2;ratioP2;P2;SDS_P1;SDS_P2;PMS_P1;PMS_P2;Temp;Humidity;BMP_temperature;BMP_pressure;BME280_temperature;BME280_humidity;BME280_pressure;Samples;Min_cycle;Max_cycle;Signal;HPM_P1;HPM_P2
2022/03/12 00:02:03;;;;;;;6.20;5.60;;;16.50;50.10;;;;;;5058668;28;20530;-63
2022/03/12 00:04:34;;;;;;;6.43;5.83;;;16.30;50.30;;;;;;5057468;28;20476;-63
2022/03/12 00:07:12;;;;;;;6.50;5.90;;;16.50;48.60;;;;;;5060592;28;20459;-64
2022/03/12 00:09:47;;;;;;;5.83;5.33;;;16.40;47.90;;;;;;5050043;28;20771;-64
2022/03/12 00:12:19;;;;;;;5.30;4.87;;;16.30;51.50;;;;;;5064615;28;20443;-63
2022/03/12 00:14:55;;;;;;;6.60;6.00;;;16.20;52.50;;;;;;5064885;28;20452;-63
2022/03/12 00:17:27;;;;;;;7.00;6.20;;;16.20;51.50;;;;;;5068277;28;20484;-63
2022/03/12 00:20:00;;;;;;;8.77;5.43;;;16.30;52.00;;;;;;5058237;28;20456;-64
2022/03/12 00:22:31;;;;;;;6.37;5.77;;;16.20;51.60;;;;;;5056812;28;20557;-64
2022/03/12 00:25:02;;;;;;;6.90;6.20;;;16.20;50.20;;;;;;5057695;28;20831;-63
2022/03/12 00:27:35;;;;;;;6.90;6.30;;;16.30;50.60;;;;;;5057125;28;20451;-63
2022/03/12 00:30:07;;;;;;;7.57;5.93;;;16.20;50.50;;;;;;5052490;28;20555;-64
2022/03/12 00:32:38;;;;;;;7.67;6.30;;;16.20;50.50;;;;;;5056530;28;20452;-63
2022/03/12 00:35:10;;;;;;;6.20;5.50;;;16.00;51.20;;;;;;5057598;28;20515;-63
2022/03/12 00:37:41;;;;;;;8.10;6.53;;;15.90;52.20;;;;;;5056808;28;20441;-63
2022/03/12 00:40:15;;;;;;;7.10;6.40;;;15.80;54.20;;;;;;5058632;28;20500;-63
2022/03/12 00:42:48;;;;;;;7.00;6.40;;;15.80;53.00;;;;;;5062613;28;20472;-64
2022/03/12 00:45:19;;;;;;;7.10;6.50;;;15.60;54.30;;;;;;5063524;28;20535;-64
2022/03/12 00:47:51;;;;;;;7.90;7.10;;;15.50;54.70;;;;;;5064543;28;20445;-64
2022/03/12 00:50:21;;;;;;;7.77;7.07;;;15.60;52.90;;;;;;5057062;28;20514;-64
2022/03/12 00:52:53;;;;;;;6.80;6.20;;;15.70;52.60;;;;;;5056604;28;20444;-64
2022/03/12 00:55:26;;;;;;;7.13;6.40;;;15.60;52.60;;;;;;5056755;28;20524;-64
2022/03/12 00:57:59;;;;;;;8.17;6.63;;;15.50;54.00;;;;;;5056239;28;20441;-64
2022/03/12 01:00:31;;;;;;;7.23;6.63;;;15.40;56.60;;;;;;5057195;28;20501;-64
2022/03/12 01:03:02;;;;;;;7.43;6.73;;;15.30;55.30;;;;;;5063447;28;20537;-64
2022/03/12 01:05:54;;;;;;;7.70;7.00;;;15.20;55.20;;;;;;5062632;28;20985;-64
2022/03/12 01:08:25;;;;;;;9.80;7.27;;;15.20;55.30;;;;;;5072390;28;20451;-64
2022/03/12 01:10:58;;;;;;;7.93;7.33;;;15.20;54.80;;;;;;5049182;28;20472;-64
2022/03/12 01:13:32;;;;;;;7.70;6.97;;;15.30;54.70;;;;;;5054688;28;20452;-64
2022/03/12 01:16:03;;;;;;;7.60;6.90;;;15.20;54.80;;;;;;5055720;28;20492;-65
2022/03/12 01:18:37;;;;;;;8.23;7.43;;;15.00;56.80;;;;;;5050938;28;20460;-64
2022/03/12 01:21:14;;;;;;;7.53;6.93;;;14.80;57.30;;;;;;5057080;28;20463;-65
2022/03/12 01:23:45;;;;;;;6.63;6.03;;;14.80;56.10;;;;;;5055509;28;20492;-63
2022/03/12 01:26:17;;;;;;;8.50;7.60;;;14.70;58.80;;;;;;5056166;28;20619;-64
2022/03/12 01:28:49;;;;;;;9.53;7.97;;;14.60;56.50;;;;;;5055418;28;20448;-64
2022/03/12 01:31:21;;;;;;;8.00;7.30;;;14.50;59.70;;;;;;5057802;28;20452;-64
2022/03/12 01:33:52;;;;;;;8.33;7.50;;;14.50;57.20;;;;;;5051550;28;20584;-66
2022/03/12 01:36:23;;;;;;;9.20;7.30;;;14.40;57.70;;;;;;5051161;28;20929;-65
2022/03/12 01:38:56;;;;;;;14.07;12.57;;;14.40;57.20;;;;;;5056146;28;20568;-65
2022/03/12 01:41:30;;;;;;;27.30;18.67;;;14.30;59.00;;;;;;5058088;28;20972;-67
2022/03/12 01:44:03;;;;;;;16.50;14.80;;;14.20;60.10;;;;;;5060995;28;21051;-64
2022/03/12 01:46:40;;;;;;;12.33;11.03;;;14.10;61.20;;;;;;5057634;28;20480;-63
2022/03/12 01:49:12;;;;;;;9.67;8.67;;;13.90;63.30;;;;;;5058485;28;20524;-63
2022/03/12 01:51:46;;;;;;;8.77;7.53;;;13.80;63.10;;;;;;5062376;28;20468;-64
2022/03/12 01:54:21;;;;;;;11.27;7.43;;;13.70;63.20;;;;;;5058531;28;20519;-62
2022/03/12 01:56:53;;;;;;;7.30;6.57;;;13.60;62.60;;;;;;5063269;28;20448;-64
2022/03/12 01:59:26;;;;;;;8.00;6.60;;;13.50;63.30;;;;;;5069697;28;20524;-65
2022/03/12 02:01:57;;;;;;;8.77;7.97;;;13.40;65.70;;;;;;5071924;28;20440;-64
2022/03/12 02:04:29;;;;;;;8.43;7.33;;;13.40;63.70;;;;;;5071458;28;20494;-63
2022/03/12 02:07:00;;;;;;;9.40;7.00;;;13.30;63.60;;;;;;5061083;28;20566;-63
2022/03/12 02:09:31;;;;;;;8.20;7.40;;;13.20;69.70;;;;;;5064134;28;20460;-63
2022/03/12 02:12:02;;;;;;;7.87;6.60;;;13.00;73.40;;;;;;5058274;28;20461;-62
2022/03/12 02:14:36;;;;;;;7.80;7.00;;;12.90;73.70;;;;;;5062175;28;20441;-65
2022/03/12 02:17:10;;;;;;;7.30;6.60;;;12.70;77.40;;;;;;5063087;28;20451;-62
2022/03/12 02:19:43;;;;;;;8.63;7.73;;;12.60;80.40;;;;;;5063239;28;20615;-63
2022/03/12 02:22:16;;;;;;;8.87;7.20;;;12.50;79.40;;;;;;5057595;28;20510;-63
2022/03/12 02:24:49;;;;;;;7.90;7.20;;;12.40;79.40;;;;;;5061769;28;20589;-63
2022/03/12 02:27:25;;;;;;;8.87;7.20;;;12.30;81.10;;;;;;5060671;28;20448;-63
2022/03/12 02:29:59;;;;;;;11.40;8.00;;;12.20;81.90;;;;;;5056176;28;20797;-61
2022/03/12 02:32:30;;;;;;;8.97;8.07;;;12.10;84.00;;;;;;5056977;28;20504;-63
2022/03/12 02:35:01;;;;;;;7.93;6.80;;;12.00;87.20;;;;;;5055623;28;20555;-62
2022/03/12 02:37:33;;;;;;;7.77;6.53;;;11.90;90.70;;;;;;5055413;28;20456;-63
2022/03/12 02:40:09;;;;;;;8.13;7.33;;;11.80;91.50;;;;;;5056010;28;20495;-63
2022/03/12 02:42:40;;;;;;;7.37;6.67;;;11.60;91.70;;;;;;5055091;28;20798;-64
2022/03/12 02:45:12;;;;;;;12.40;7.40;;;11.50;94.00;;;;;;5057434;28;20562;-63
2022/03/12 02:47:46;;;;;;;11.50;8.43;;;11.50;95.00;;;;;;5058052;28;20525;-63
2022/03/12 02:50:17;;;;;;;8.90;8.00;;;11.50;91.20;;;;;;5062773;28;20441;-65
2022/03/12 02:52:48;;;;;;;13.57;10.20;;;11.50;91.10;;;;;;5061999;28;20460;-62
2022/03/12 02:55:23;;;;;;;10.87;9.00;;;11.50;86.70;;;;;;5053130;28;20468;-62
2022/03/12 02:57:54;;;;;;;12.33;9.63;;;11.50;91.50;;;;;;5058355;28;20462;-62
2022/03/12 03:00:26;;;;;;;11.20;10.00;;;11.40;93.20;;;;;;5063076;28;20448;-67
2022/03/12 03:02:57;;;;;;;10.23;9.10;;;11.30;95.50;;;;;;5072137;28;20436;-68
2022/03/12 03:05:36;;;;;;;10.33;9.13;;;11.20;96.90;;;;;;5064592;28;20534;-66
2022/03/12 03:08:09;;;;;;;10.50;9.50;;;11.00;98.50;;;;;;5065692;28;20505;-67
2022/03/12 03:10:43;;;;;;;11.53;10.10;;;10.90;99.90;;;;;;5065889;28;20445;-66
2022/03/12 03:13:36;;;;;;;10.00;8.97;;;10.80;99.90;;;;;;5054974;28;20557;-67
2022/03/12 03:16:11;;;;;;;12.00;10.87;;;10.70;99.30;;;;;;5056599;28;20880;-68
2022/03/12 03:18:50;;;;;;;12.57;11.10;;;10.70;99.90;;;;;;5058168;28;20451;-68
2022/03/12 03:21:24;;;;;;;16.60;12.43;;;10.60;99.90;;;;;;5055754;28;20448;-69
2022/03/12 03:23:55;;;;;;;18.27;14.33;;;10.40;99.90;;;;;;5056694;28;20538;-68
2022/03/12 03:26:53;;;;;;;22.00;16.70;;;10.40;99.90;;;;;;5055127;28;20453;-68
2022/03/12 03:29:25;;;;;;;33.57;22.70;;;10.30;99.90;;;;;;5054969;28;20462;-66
2022/03/12 03:31:56;;;;;;;36.47;24.30;;;10.30;99.90;;;;;;5060799;28;20453;-66
2022/03/12 03:34:27;;;;;;;44.37;29.23;;;10.10;99.90;;;;;;5064747;28;20448;-68
2022/03/12 03:36:58;;;;;;;52.77;29.87;;;10.00;99.90;;;;;;5063462;28;20444;-67
2022/03/12 03:39:31;;;;;;;39.70;26.57;;;10.00;99.90;;;;;;5064219;28;20445;-68
2022/03/12 03:42:04;;;;;;;31.30;21.63;;;10.00;99.90;;;;;;5062009;28;20439;-68
2022/03/12 03:44:34;;;;;;;32.20;21.97;;;9.90;99.90;;;;;;5059920;28;20488;-67
2022/03/12 03:47:06;;;;;;;32.77;20.93;;;9.90;99.90;;;;;;5058966;28;20543;-67
2022/03/12 03:49:37;;;;;;;21.17;15.87;;;9.90;99.90;;;;;;5065468;28;20449;-67
2022/03/12 03:52:09;;;;;;;25.00;17.07;;;9.80;99.90;;;;;;5061449;28;20447;-66
2022/03/12 03:54:42;;;;;;;22.23;15.60;;;9.60;99.90;;;;;;5066324;28;20869;-69
2022/03/12 03:57:18;;;;;;;22.23;15.73;;;9.60;99.90;;;;;;5064643;28;20448;-73
2022/03/12 03:59:49;;;;;;;19.80;14.60;;;9.60;99.90;;;;;;5066164;28;20543;-69
2022/03/12 04:02:20;;;;;;;17.60;14.60;;;9.60;99.90;;;;;;5065088;28;20765;-73
2022/03/12 04:04:53;;;;;;;18.23;14.10;;;9.50;99.90;;;;;;5065098;28;22366;-73
2022/03/12 04:07:25;;;;;;;21.43;15.70;;;9.50;99.90;;;;;;5064759;28;20452;-66
2022/03/12 04:10:06;;;;;;;22.80;15.90;;;9.40;99.90;;;;;;5068899;28;20440;-72
2022/03/12 04:12:39;;;;;;;17.80;13.93;;;9.40;99.90;;;;;;5056753;28;20521;-68
2022/03/12 04:15:11;;;;;;;21.92;14.32;;;9.30;99.90;;;;;;5066561;28;20571;-69
2022/03/12 04:17:43;;;;;;;18.35;14.40;;;9.30;99.90;;;;;;5054046;28;20202;-68
2022/03/12 04:20:14;;;;;;;18.98;13.65;;;9.20;99.90;;;;;;5068191;28;20304;-68
2022/03/12 04:22:46;;;;;;;17.63;15.10;;;9.10;99.90;;;;;;5059292;28;20216;-67
2022/03/12 04:25:18;;;;;;;16.10;12.60;;;9.10;99.90;;;;;;5059209;28;20297;-67
2022/03/12 04:27:51;;;;;;;20.97;12.43;;;9.10;99.90;;;;;;5068150;28;20530;-70
2022/03/12 04:30:22;;;;;;;14.73;12.68;;;9.10;99.90;;;;;;5071551;28;20486;-68
2022/03/12 04:32:53;;;;;;;17.27;12.75;;;8.90;99.90;;;;;;5064921;28;20202;-69
2022/03/12 04:35:25;;;;;;;15.25;11.50;;;8.90;99.90;;;;;;5064620;28;20198;-70
2022/03/12 04:37:59;;;;;;;15.15;12.02;;;8.80;99.90;;;;;;5060726;28;20194;-70
2022/03/12 04:40:30;;;;;;;12.53;11.23;;;8.70;99.90;;;;;;5054844;28;20318;-70
2022/03/12 04:43:03;;;;;;;12.30;10.63;;;8.60;99.90;;;;;;5064772;28;20457;-69
2022/03/12 04:45:33;;;;;;;14.73;11.20;;;8.60;99.90;;;;;;5065759;28;20484;-69
2022/03/12 04:48:06;;;;;;;16.20;13.25;;;8.60;99.90;;;;;;5063630;28;20202;-69
2022/03/12 04:50:40;;;;;;;15.70;11.82;;;8.60;99.90;;;;;;5049620;28;20198;-69
2022/03/12 04:53:11;;;;;;;16.17;12.60;;;8.50;99.90;;;;;;5064649;28;20620;-69
2022/03/12 04:55:44;;;;;;;13.27;11.82;;;8.40;99.90;;;;;;5064634;28;20301;-67
2022/03/12 04:58:17;;;;;;;17.17;11.38;;;8.30;99.90;;;;;;5063662;28;20202;-71
2022/03/12 05:00:48;;;;;;;13.80;11.73;;;8.20;99.90;;;;;;5064743;28;20288;-72
2022/03/12 05:03:21;;;;;;;13.68;11.85;;;8.20;99.90;;;;;;5064484;28;20194;-68
2022/03/12 05:05:54;;;;;;;13.70;11.75;;;8.20;99.90;;;;;;5060507;28;20561;-68
2022/03/12 05:08:27;;;;;;;14.93;12.63;;;8.10;99.90;;;;;;5065204;28;20360;-70
2022/03/12 05:11:01;;;;;;;15.23;12.98;;;8.20;99.90;;;;;;5064452;28;20194;-71
2022/03/12 05:13:33;;;;;;;14.93;13.13;;;8.20;99.90;;;;;;5066449;28;20698;-73
2022/03/12 05:16:06;;;;;;;13.88;12.40;;;8.10;99.90;;;;;;5064336;28;20240;-71
2022/03/12 05:18:40;;;;;;;17.10;13.07;;;8.10;99.90;;;;;;5063085;28;20216;-70
2022/03/12 05:21:11;;;;;;;15.50;12.80;;;8.00;99.90;;;;;;5058728;28;20206;-69
2022/03/12 05:23:42;;;;;;;13.35;12.15;;;7.90;99.90;;;;;;5063648;28;20228;-68
2022/03/12 05:26:18;;;;;;;16.90;12.88;;;7.90;99.90;;;;;;5062670;28;20273;-69
2022/03/12 05:28:51;;;;;;;13.70;12.32;;;7.80;99.90;;;;;;5062735;28;20265;-67
2022/03/12 05:31:22;;;;;;;16.52;12.32;;;7.80;99.90;;;;;;5064052;28;20206;-67
2022/03/12 05:33:52;;;;;;;14.10;12.20;;;7.80;99.90;;;;;;5063558;28;20246;-66
2022/03/12 05:36:24;;;;;;;15.80;14.18;;;7.70;99.90;;;;;;5071968;28;20258;-67
2022/03/12 05:38:56;;;;;;;15.23;13.65;;;7.70;99.90;;;;;;5062991;28;20210;-67
2022/03/12 05:41:29;;;;;;;16.30;14.70;;;7.70;99.90;;;;;;5064493;28;20217;-67
2022/03/12 05:44:03;;;;;;;24.13;21.52;;;7.60;99.90;;;;;;5061872;28;20266;-67
2022/03/12 05:46:34;;;;;;;20.80;18.70;;;7.60;99.90;;;;;;5068323;28;20229;-66
2022/03/12 05:49:05;;;;;;;20.13;17.95;;;7.50;99.90;;;;;;5064158;28;20288;-67
2022/03/12 05:51:37;;;;;;;21.63;18.23;;;7.50;99.90;;;;;;5065656;28;20206;-67
2022/03/12 05:54:10;;;;;;;20.27;17.98;;;7.50;99.90;;;;;;5070170;28;20232;-67
2022/03/12 05:56:41;;;;;;;20.25;17.38;;;7.50;99.90;;;;;;5067208;28;20352;-67
2022/03/12 05:59:13;;;;;;;21.02;18.73;;;7.40;99.90;;;;;;5065512;28;20217;-68
2022/03/12 06:01:53;;;;;;;19.17;17.13;;;7.50;99.90;;;;;;5067869;28;20577;-68
2022/03/12 06:04:25;;;;;;;18.67;16.77;;;7.40;99.90;;;;;;5063459;28;20548;-68
2022/03/12 06:06:58;;;;;;;20.42;17.67;;;7.40;99.90;;;;;;5063351;28;20229;-68
2022/03/12 06:09:29;;;;;;;21.38;17.88;;;7.40;99.90;;;;;;5062805;28;20202;-68
2022/03/12 06:12:03;;;;;;;19.25;17.23;;;7.40;99.90;;;;;;5063948;28;20212;-66
2022/03/12 06:14:36;;;;;;;20.75;18.30;;;7.40;99.90;;;;;;5063187;28;20189;-67
2022/03/12 06:17:08;;;;;;;20.20;18.17;;;7.30;99.90;;;;;;5061392;28;21957;-67
2022/03/12 06:19:39;;;;;;;20.88;18.50;;;7.30;99.90;;;;;;5063213;28;20254;-67
2022/03/12 06:22:10;;;;;;;21.33;19.13;;;7.20;99.90;;;;;;5062505;28;20261;-67
2022/03/12 06:24:42;;;;;;;20.23;17.52;;;7.20;99.90;;;;;;5061135;28;20257;-67
2022/03/12 06:27:13;;;;;;;22.13;18.92;;;7.20;99.90;;;;;;5066538;28;20229;-67
2022/03/12 06:29:45;;;;;;;20.85;18.20;;;7.20;99.90;;;;;;5065115;28;20201;-65
2022/03/12 06:32:21;;;;;;;19.55;17.55;;;7.10;99.90;;;;;;5063561;28;20706;-66
2022/03/12 06:34:51;;;;;;;20.60;18.42;;;7.10;99.90;;;;;;5049314;28;20764;-67
2022/03/12 06:37:23;;;;;;;22.05;18.73;;;7.10;99.90;;;;;;5063214;28;20309;-67
2022/03/12 06:39:55;;;;;;;20.42;18.42;;;6.90;99.90;;;;;;5064184;28;20214;-66
2022/03/12 06:42:27;;;;;;;19.48;17.42;;;6.90;99.90;;;;;;5061631;28;20261;-66
2022/03/12 06:44:59;;;;;;;20.85;18.70;;;6.90;99.90;;;;;;5066027;28;20941;-66
2022/03/12 06:47:30;;;;;;;20.75;17.60;;;6.80;99.90;;;;;;5070110;28;20225;-66
2022/03/12 06:50:02;;;;;;;21.15;18.83;;;6.80;99.90;;;;;;5065323;28;20245;-67
2022/03/12 06:52:33;;;;;;;19.88;17.80;;;6.70;99.90;;;;;;5063211;28;20202;-67
2022/03/12 06:55:04;;;;;;;20.80;18.58;;;6.70;99.90;;;;;;5055102;28;20218;-67
2022/03/12 06:57:35;;;;;;;19.95;17.90;;;6.70;99.90;;;;;;5065056;28;20265;-67
2022/03/12 07:00:14;;;;;;;20.42;18.42;;;6.70;99.90;;;;;;5062580;28;20194;-67
2022/03/12 07:02:45;;;;;;;20.85;18.65;;;6.70;99.90;;;;;;5063466;28;20296;-67
2022/03/12 07:05:16;;;;;;;24.35;18.92;;;6.60;99.90;;;;;;5069825;28;20197;-67
2022/03/12 07:07:52;;;;;;;21.27;19.08;;;6.60;99.90;;;;;;5062624;28;20198;-67
2022/03/12 07:10:25;;;;;;;21.80;19.20;;;6.50;99.90;;;;;;5062792;28;20213;-67
2022/03/12 07:13:00;;;;;;;22.58;20.25;;;6.50;99.90;;;;;;5061441;28;20194;-68
2022/03/12 07:15:33;;;;;;;24.48;20.25;;;6.50;99.90;;;;;;5062798;28;20308;-66
2022/03/12 07:18:04;;;;;;;23.50;20.30;;;6.50;99.90;;;;;;5055409;28;20818;-67
2022/03/12 07:20:35;;;;;;;21.20;18.90;;;6.50;99.90;;;;;;5062236;28;20212;-66
2022/03/12 07:23:06;;;;;;;22.45;19.50;;;6.40;99.90;;;;;;5069485;28;20276;-67
2022/03/12 07:25:37;;;;;;;22.70;19.50;;;6.40;99.90;;;;;;5067503;28;20288;-67
2022/03/12 07:28:10;;;;;;;21.88;19.23;;;6.40;99.90;;;;;;5062652;28;20293;-67
2022/03/12 07:30:42;;;;;;;20.33;18.13;;;6.30;99.90;;;;;;5063639;28;20205;-67
2022/03/12 07:33:13;;;;;;;22.80;20.40;;;6.20;99.90;;;;;;5045664;28;20277;-67
2022/03/12 07:35:44;;;;;;;22.52;20.15;;;6.10;99.90;;;;;;5067156;28;20595;-68
2022/03/12 07:38:15;;;;;;;21.67;19.33;;;6.00;99.90;;;;;;5061620;28;20202;-68
2022/03/12 07:40:46;;;;;;;21.33;18.65;;;6.00;99.90;;;;;;5075782;28;20197;-67
2022/03/12 07:43:17;;;;;;;22.90;20.50;;;5.90;99.90;;;;;;5064950;28;20692;-65
2022/03/12 07:45:50;;;;;;;23.48;20.90;;;5.90;99.90;;;;;;5064239;28;20190;-67
2022/03/12 07:48:21;;;;;;;24.10;21.45;;;5.80;99.90;;;;;;5055043;28;20297;-67
2022/03/12 07:51:09;;;;;;;25.15;21.98;;;5.90;99.90;;;;;;5059462;28;20312;-67
2022/03/12 07:53:40;;;;;;;24.17;21.67;;;5.80;99.90;;;;;;5062790;28;20224;-67
2022/03/12 07:56:12;;;;;;;21.33;19.02;;;5.80;99.90;;;;;;5073347;28;20217;-67
2022/03/12 07:58:43;;;;;;;23.33;20.23;;;5.80;99.90;;;;;;5063799;28;20194;-67
2022/03/12 08:01:15;;;;;;;22.45;20.15;;;5.70;99.90;;;;;;5063010;28;20205;-68
2022/03/12 08:03:46;;;;;;;21.58;18.60;;;5.70;99.90;;;;;;5062160;28;20213;-67
2022/03/12 08:06:19;;;;;;;21.42;19.30;;;5.70;99.90;;;;;;5064319;28;20685;-66
2022/03/12 08:08:50;;;;;;;22.10;19.50;;;5.70;99.90;;;;;;5060891;28;20218;-65
2022/03/12 08:11:28;;;;;;;21.95;19.65;;;5.60;99.90;;;;;;5061963;28;20266;-66
2022/03/12 08:14:02;;;;;;;23.55;19.95;;;5.70;99.90;;;;;;5067307;28;20284;-66
2022/03/12 08:16:37;;;;;;;21.90;19.55;;;5.70;99.90;;;;;;5064258;28;20225;-65
2022/03/12 08:19:10;;;;;;;22.63;20.38;;;5.70;99.90;;;;;;5071922;28;20708;-67
2022/03/12 08:21:41;;;;;;;20.65;18.48;;;5.60;99.90;;;;;;5072702;28;20260;-67
2022/03/12 08:24:15;;;;;;;19.80;17.75;;;5.50;99.90;;;;;;5063706;28;20213;-67
2022/03/12 08:26:47;;;;;;;22.80;20.10;;;5.50;99.90;;;;;;5062745;28;20263;-68
2022/03/12 08:29:19;;;;;;;24.70;20.08;;;5.50;99.90;;;;;;5065049;28;20261;-67
2022/03/12 08:31:52;;;;;;;21.92;18.13;;;5.50;99.90;;;;;;5065910;28;20194;-65
2022/03/12 08:34:26;;;;;;;20.88;18.67;;;5.50;99.90;;;;;;5073704;28;20367;-67
2022/03/12 08:36:57;;;;;;;21.77;18.42;;;5.30;99.90;;;;;;5072210;28;20201;-67
2022/03/12 08:39:28;;;;;;;20.00;17.95;;;5.30;99.90;;;;;;5060032;28;20219;-67
2022/03/12 08:41:59;;;;;;;22.25;19.75;;;5.30;99.90;;;;;;5068146;28;20210;-66
2022/03/12 08:44:30;;;;;;;19.70;17.60;;;5.20;99.90;;;;;;5054603;28;20216;-67
2022/03/12 08:47:03;;;;;;;20.73;18.55;;;5.20;99.90;;;;;;5069931;28;20271;-67
2022/03/12 08:49:35;;;;;;;21.58;17.77;;;5.20;99.90;;;;;;5068465;28;20257;-67
2022/03/12 08:52:06;;;;;;;19.75;17.77;;;5.10;99.90;;;;;;5064978;28;20202;-68
2022/03/12 08:54:37;;;;;;;20.45;16.80;;;5.00;99.90;;;;;;5052739;28;20202;-66
2022/03/12 08:57:08;;;;;;;20.75;18.70;;;5.00;99.90;;;;;;5064385;28;20210;-67
2022/03/12 08:59:39;;;;;;;21.35;17.55;;;5.00;99.90;;;;;;5064919;28;20202;-67
2022/03/12 09:02:12;;;;;;;17.40;15.52;;;5.00;99.90;;;;;;5065777;28;20202;-67
2022/03/12 09:04:43;;;;;;;19.98;18.00;;;5.00;99.90;;;;;;5064234;28;20270;-66
2022/03/12 09:07:14;;;;;;;25.15;18.48;;;5.00;99.90;;;;;;5063771;28;20225;-65
2022/03/12 09:09:45;;;;;;;20.40;17.73;;;4.90;99.90;;;;;;5070985;28;20209;-65
2022/03/12 09:12:16;;;;;;;19.42;17.33;;;5.00;99.90;;;;;;5071219;28;20261;-65
2022/03/12 09:14:47;;;;;;;20.33;18.13;;;5.00;99.90;;;;;;5066223;28;20646;-65
2022/03/12 09:17:20;;;;;;;21.88;18.42;;;5.00;99.90;;;;;;5069233;28;20578;-64
2022/03/12 09:19:51;;;;;;;19.48;17.27;;;5.00;99.90;;;;;;5065123;28;20226;-65
2022/03/12 09:22:23;;;;;;;19.52;17.60;;;5.00;99.90;;;;;;5065541;28;20212;-65
2022/03/12 09:24:53;;;;;;;20.67;18.35;;;4.90;99.90;;;;;;5065570;28;20209;-65
2022/03/12 09:27:25;;;;;;;23.27;18.98;;;4.90;99.90;;;;;;5062858;28;20226;-67
2022/03/12 09:29:55;;;;;;;19.50;17.25;;;4.90;99.90;;;;;;5067324;28;20269;-65
2022/03/12 09:32:28;;;;;;;20.30;18.02;;;4.80;99.90;;;;;;5063810;28;20320;-65
2022/03/12 09:34:59;;;;;;;19.98;18.05;;;4.80;99.90;;;;;;5064105;28;20295;-65
2022/03/12 09:37:30;;;;;;;22.70;17.38;;;4.80;99.90;;;;;;5064975;28;20276;-65
2022/03/12 09:40:01;;;;;;;19.45;17.35;;;4.70;99.90;;;;;;5064365;28;20198;-65
2022/03/12 09:42:32;;;;;;;20.52;18.50;;;4.70;99.90;;;;;;5063285;28;20210;-66
2022/03/12 09:45:03;;;;;;;20.83;17.48;;;4.60;99.90;;;;;;5063398;28;20194;-66
2022/03/12 09:47:37;;;;;;;20.20;17.15;;;4.60;99.90;;;;;;5071297;28;20221;-66
2022/03/12 09:50:08;;;;;;;19.00;17.10;;;4.50;99.90;;;;;;5064854;28;20205;-65
2022/03/12 09:52:40;;;;;;;21.67;17.83;;;4.60;99.90;;;;;;5056740;28;20236;-66
2022/03/12 09:55:11;;;;;;;20.52;18.52;;;4.60;99.90;;;;;;5064016;28;20293;-66
2022/03/12 09:57:45;;;;;;;18.02;16.02;;;4.60;99.90;;;;;;5062801;28;20201;-65
2022/03/12 10:00:18;;;;;;;20.63;18.02;;;4.50;99.90;;;;;;5068721;28;20317;-66
2022/03/12 10:02:51;;;;;;;19.90;18.00;;;4.40;99.90;;;;;;5065906;28;20194;-66
2022/03/12 10:05:22;;;;;;;18.75;16.85;;;4.40;99.90;;;;;;5064763;28;20209;-66
2022/03/12 10:07:53;;;;;;;19.80;17.80;;;4.40;99.90;;;;;;5065515;28;20260;-66
2022/03/12 10:10:25;;;;;;;19.70;17.80;;;4.40;99.90;;;;;;5065722;28;20212;-66
2022/03/12 10:12:56;;;;;;;19.17;17.15;;;4.30;99.90;;;;;;5062417;28;20644;-66
2022/03/12 10:15:27;;;;;;;20.35;17.60;;;4.30;99.90;;;;;;5061805;28;20312;-66
2022/03/12 10:18:00;;;;;;;20.52;18.23;;;4.20;99.90;;;;;;5061693;28;20194;-66
2022/03/12 10:20:31;;;;;;;19.92;18.02;;;4.20;99.90;;;;;;5060030;28;20201;-66
2022/03/12 10:23:02;;;;;;;19.50;17.40;;;4.20;99.90;;;;;;5069351;28;20300;-65
2022/03/12 10:25:34;;;;;;;21.42;17.25;;;4.10;99.90;;;;;;5062780;28;20265;-66
2022/03/12 10:28:05;;;;;;;18.80;16.80;;;4.10;99.90;;;;;;5063060;28;20263;-66
2022/03/12 10:30:36;;;;;;;20.33;17.50;;;4.10;99.90;;;;;;5066317;28;20273;-66
2022/03/12 10:33:09;;;;;;;23.73;18.52;;;4.00;99.90;;;;;;5063721;28;20185;-66
2022/03/12 10:35:40;;;;;;;19.58;17.25;;;3.90;99.90;;;;;;5066764;28;20210;-66
2022/03/12 10:38:13;;;;;;;36.97;27.10;;;3.90;99.90;;;;;;5064417;28;20708;-66
2022/03/12 10:40:45;;;;;;;25.40;21.20;;;3.80;99.90;;;;;;5079045;28;20206;-65
2022/03/12 10:43:16;;;;;;;18.85;16.92;;;3.80;99.90;;;;;;5069761;28;20272;-64
2022/03/12 10:45:50;;;;;;;19.50;17.50;;;3.80;99.90;;;;;;5064330;28;20273;-64
2022/03/12 10:48:23;;;;;;;20.33;18.17;;;3.80;99.90;;;;;;5062649;28;20678;-65
2022/03/12 10:50:54;;;;;;;19.83;17.73;;;3.90;99.90;;;;;;5068851;28;20198;-64
2022/03/12 10:53:25;;;;;;;21.60;18.83;;;3.80;99.90;;;;;;5062286;28;20372;-66
2022/03/12 10:55:56;;;;;;;23.45;19.63;;;3.80;99.90;;;;;;5061736;28;20225;-65
2022/03/12 10:58:28;;;;;;;22.60;18.90;;;3.90;99.90;;;;;;5062487;28;20201;-64
2022/03/12 11:01:01;;;;;;;19.20;17.33;;;3.80;99.90;;;;;;5063617;28;20254;-64
2022/03/12 11:03:34;;;;;;;21.90;16.65;;;3.70;99.90;;;;;;5069202;28;20252;-66
2022/03/12 11:06:08;;;;;;;18.40;16.50;;;3.60;99.90;;;;;;5061113;28;20236;-65
2022/03/12 11:08:39;;;;;;;20.95;17.92;;;3.50;99.90;;;;;;5065621;28;20222;-64
2022/03/12 11:11:12;;;;;;;19.30;17.25;;;3.50;99.90;;;;;;5063998;28;20524;-65
2022/03/12 11:13:46;;;;;;;18.70;16.98;;;3.40;99.90;;;;;;5061591;28;20537;-65
2022/03/12 11:16:20;;;;;;;19.40;17.40;;;3.40;99.90;;;;;;5061985;28;20228;-65
2022/03/12 11:19:01;;;;;;;19.35;16.90;;;3.40;99.90;;;;;;5065398;28;20198;-65
2022/03/12 11:21:37;;;;;;;18.45;16.55;;;3.40;99.90;;;;;;5063024;28;20216;-65
2022/03/12 11:24:09;;;;;;;19.38;17.20;;;3.40;99.90;;;;;;5074282;28;20239;-64
2022/03/12 11:26:49;;;;;;;19.05;16.52;;;3.20;99.90;;;;;;5064268;28;20206;-65
2022/03/12 11:29:22;;;;;;;21.23;18.70;;;3.20;99.90;;;;;;5052784;28;20233;-64
2022/03/12 11:31:55;;;;;;;20.92;18.20;;;3.20;99.90;;;;;;5061696;28;20281;-64
2022/03/12 11:34:32;;;;;;;21.40;19.05;;;3.20;99.90;;;;;;5062716;28;20546;-65
2022/03/12 11:37:13;;;;;;;19.60;17.33;;;3.00;99.90;;;;;;5064067;28;20185;-66
2022/03/12 11:39:47;;;;;;;21.35;18.05;;;2.90;99.90;;;;;;5062006;28;20212;-63
2022/03/12 11:42:20;;;;;;;21.08;18.75;;;2.90;99.90;;;;;;5060260;28;20202;-63
2022/03/12 11:44:52;;;;;;;21.17;18.00;;;2.90;99.90;;;;;;5061890;28;20282;-63
2022/03/12 11:47:25;;;;;;;23.88;17.08;;;2.90;99.90;;;;;;5073731;28;20814;-62
2022/03/12 11:50:00;;;;;;;19.80;17.70;;;2.80;99.90;;;;;;5061721;28;20210;-63
2022/03/12 11:52:32;;;;;;;19.67;17.58;;;2.80;99.90;;;;;;5064051;28;20281;-63
2022/03/12 11:55:05;;;;;;;21.33;17.45;;;2.90;99.90;;;;;;5067632;28;20206;-63
2022/03/12 11:57:37;;;;;;;21.23;18.17;;;2.80;99.90;;;;;;5065775;28;20194;-64
2022/03/12 12:00:19;;;;;;;19.63;17.50;;;2.80;99.90;;;;;;5060169;28;20202;-64
2022/03/12 12:02:53;;;;;;;20.65;18.48;;;2.80;99.90;;;;;;5064848;28;20210;-64
2022/03/12 12:05:29;;;;;;;19.40;17.45;;;2.80;99.90;;;;;;5062698;28;20217;-64
2022/03/12 12:08:05;;;;;;;20.05;18.05;;;2.80;99.90;;;;;;5055306;28;20202;-64
2022/03/12 12:10:42;;;;;;;21.23;16.92;;;2.70;99.90;;;;;;5069533;28;20273;-65
2022/03/12 12:13:15;;;;;;;20.05;17.95;;;2.70;99.90;;;;;;5067491;28;20217;-64
2022/03/12 12:15:46;;;;;;;19.90;17.63;;;2.60;99.90;;;;;;5071129;28;20221;-64
2022/03/12 12:18:17;;;;;;;18.00;16.20;;;2.60;99.90;;;;;;5074680;28;20272;-64
2022/03/12 12:20:50;;;;;;;19.88;17.80;;;2.50;99.90;;;;;;5079761;28;20205;-64
2022/03/12 12:23:22;;;;;;;22.25;16.98;;;2.40;99.90;;;;;;5051624;28;20261;-64
2022/03/12 12:25:54;;;;;;;19.13;17.08;;;2.50;99.90;;;;;;5066750;28;20202;-64
2022/03/12 12:28:26;;;;;;;20.42;18.15;;;2.50;99.90;;;;;;5064501;28;20209;-64
2022/03/12 12:30:57;;;;;;;19.02;17.10;;;2.50;99.90;;;;;;5065424;28;20209;-64
2022/03/12 12:33:30;;;;;;;20.33;18.17;;;2.50;99.90;;;;;;5066092;28;20578;-64
2022/03/12 12:36:15;;;;;;;20.17;18.17;;;2.40;99.90;;;;;;5065398;28;20622;-64
2022/03/12 12:39:09;;;;;;;18.55;16.65;;;2.40;99.90;;;;;;5055330;28;20520;-64
2022/03/12 12:41:54;;;;;;;20.15;18.08;;;2.30;99.90;;;;;;5078819;28;20249;-64
2022/03/12 12:44:43;;;;;;;22.83;17.90;;;2.20;99.90;;;;;;5065113;28;20521;-64
2022/03/12 12:47:20;;;;;;;19.52;17.50;;;2.20;99.90;;;;;;5064783;28;20266;-64
2022/03/12 12:49:55;;;;;;;23.25;17.10;;;2.30;99.90;;;;;;5082199;28;20231;-64
2022/03/12 12:52:34;;;;;;;21.30;18.98;;;2.30;99.90;;;;;;5070710;28;20201;-64
2022/03/12 12:55:07;;;;;;;20.40;17.90;;;2.30;99.90;;;;;;5066988;28;21005;-64
2022/03/12 12:57:43;;;;;;;22.52;17.33;;;2.30;99.90;;;;;;5065300;28;20280;-64
2022/03/12 13:00:38;;;;;;;20.35;18.25;;;2.30;99.90;;;;;;5064881;28;20227;-64
2022/03/12 13:03:18;;;;;;;19.20;17.20;;;2.40;99.90;;;;;;5079477;28;20233;-64
2022/03/12 13:05:58;;;;;;;22.13;18.40;;;2.40;99.90;;;;;;5053168;28;20242;-64
2022/03/12 13:08:45;;;;;;;22.35;17.08;;;2.40;99.90;;;;;;5064382;28;20284;-64